Time;durP1;ratioP1;P1;durP2;ratioP2;P2;SDS_P1;SDS_P2;PMS_P1;PMS_P2;Temp;Humidity;BMP_temperature;BMP_pressure;BME280_temperature;BME280_humidity;BME280_pressure;Samples;Min_cycle;Max_cycle;Signal;HPM_P1;HPM_P2
2022/08/29 00:03:10;;;;;;;12.30;10.90;;;;;;;22.70;64.37;98923.64;237284;1190;140594;-57
2022/08/29 00:08:13;;;;;;;12.90;11.50;;;;;;;22.67;64.44;98925.50;238990;1190;139494;-58
2022/08/29 00:13:17;;;;;;;13.30;11.70;;;;;;;22.63;64.53;98925.45;238840;1192;140353;-56
2022/08/29 00:18:20;;;;;;;12.60;11.40;;;;;;;22.59;64.44;98927.58;238008;1192;139338;-55
2022/08/29 00:23:23;;;;;;;11.60;10.20;;;;;;;22.56;64.46;98932.63;238987;1192;140905;-55
2022/08/29 00:28:27;;;;;;;10.40;9.40;;;;;;;22.57;64.57;98931.73;238770;1190;140442;-57
2022/08/29 00:33:30;;;;;;;11.50;10.20;;;;;;;22.57;64.49;98930.36;238879;1192;139164;-59
2022/08/29 00:38:33;;;;;;;11.50;10.40;;;;;;;22.54;64.46;98923.41;238906;1190;139892;-56
2022/08/29 00:43:36;;;;;;;10.60;9.40;;;;;;;22.51;64.50;98920.91;238999;1191;139320;-58
2022/08/29 00:48:40;;;;;;;10.90;9.10;;;;;;;22.47;64.58;98920.72;238996;1190;139432;-58
2022/08/29 00:53:46;;;;;;;10.10;9.00;;;;;;;22.47;64.56;98917.88;239235;1190;140584;-58
2022/08/29 00:58:56;;;;;;;11.20;8.80;;;;;;;22.50;64.64;98923.90;238952;1190;139763;-57
2022/08/29 01:03:59;;;;;;;10.00;8.80;;;;;;;22.49;64.62;98920.89;238425;1192;139920;-56
2022/08/29 01:09:03;;;;;;;9.60;8.50;;;;;;;22.50;64.66;98927.91;238772;1192;139795;-59
2022/08/29 01:14:06;;;;;;;11.10;7.20;;;;;;;22.47;64.63;98927.34;238223;1192;139158;-59
2022/08/29 01:19:38;;;;;;;8.70;7.20;;;;;;;22.44;64.41;98928.66;239005;1191;140378;-58
2022/08/29 01:24:49;;;;;;;8.00;7.20;;;;;;;22.43;64.67;98931.34;239027;1190;139823;-58
2022/08/29 01:29:52;;;;;;;11.80;7.60;;;;;;;22.46;64.71;98931.20;238883;1191;139397;-58
2022/08/29 01:34:55;;;;;;;10.10;7.80;;;;;;;22.45;64.70;98922.08;238928;1191;139231;-58
2022/08/29 01:39:58;;;;;;;8.80;7.00;;;;;;;22.44;64.65;98927.02;238682;1191;139808;-58
2022/08/29 01:45:04;;;;;;;7.30;6.10;;;;;;;22.46;64.56;98928.18;238670;1192;140317;-58
2022/08/29 01:50:14;;;;;;;8.70;6.90;;;;;;;22.49;64.74;98931.43;238955;1191;140493;-57
2022/08/29 01:55:17;;;;;;;8.80;7.00;;;;;;;22.54;64.73;98933.78;238982;1192;139929;-58
2022/08/29 02:00:20;;;;;;;7.90;6.70;;;;;;;22.52;64.56;98939.93;238910;1192;139664;-59
2022/08/29 02:05:23;;;;;;;7.30;6.00;;;;;;;22.51;64.60;98941.65;237761;1192;138706;-59
2022/08/29 02:10:27;;;;;;;9.40;6.60;;;;;;;22.50;64.38;98942.35;238768;1190;139624;-59
2022/08/29 02:15:29;;;;;;;7.90;5.70;;;;;;;22.50;64.51;98947.36;237692;1192;140896;-59
2022/08/29 02:20:33;;;;;;;9.80;6.60;;;;;;;22.51;64.63;98946.23;239054;1192;139629;-58
2022/08/29 02:25:43;;;;;;;8.90;6.20;;;;;;;22.50;64.62;98940.92;238641;1192;138773;-60
2022/08/29 02:30:49;;;;;;;7.30;5.50;;;;;;;22.46;64.58;98945.80;238832;1190;139360;-59
2022/08/29 02:35:58;;;;;;;6.60;5.90;;;;;;;22.50;64.58;98943.10;238800;1191;141002;-59
2022/08/29 02:41:03;;;;;;;11.20;6.90;;;;;;;22.47;64.50;98947.16;238651;1192;139937;-59
2022/08/29 02:46:06;;;;;;;9.00;7.00;;;;;;;22.45;64.60;98947.40;238915;1191;139800;-60
2022/08/29 02:51:16;;;;;;;12.20;8.00;;;;;;;22.38;64.49;98950.27;238917;1190;140346;-57
2022/08/29 02:56:20;;;;;;;9.50;7.40;;;;;;;22.29;64.45;98953.50;239051;1191;139489;-59
2022/08/29 03:01:24;;;;;;;10.20;8.10;;;;;;;22.23;64.49;98958.56;238879;1190;140849;-60
2022/08/29 03:06:28;;;;;;;10.30;7.40;;;;;;;22.23;64.68;98955.83;238706;1192;139693;-58
2022/08/29 03:11:31;;;;;;;50.40;39.20;;;;;;;22.24;64.80;98959.31;239069;1191;139982;-58
2022/08/29 03:16:34;;;;;;;10.80;8.50;;;;;;;22.27;64.75;98959.44;238813;1191;139899;-59
2022/08/29 03:21:37;;;;;;;11.50;6.60;;;;;;;22.27;64.68;98963.00;238708;1190;139226;-59
2022/08/29 03:26:40;;;;;;;8.20;7.30;;;;;;;22.34;64.85;98959.80;238449;1192;141139;-58
2022/08/29 03:31:43;;;;;;;11.50;9.00;;;;;;;22.45;64.82;98965.70;238915;1190;140403;-58
2022/08/29 03:36:46;;;;;;;45.10;35.30;;;;;;;22.51;64.84;98967.20;239044;1192;139936;-59
2022/08/29 03:41:50;;;;;;;14.20;12.40;;;;;;;22.56;64.69;98971.52;238839;1192;139828;-59
2022/08/29 03:46:53;;;;;;;14.10;11.60;;;;;;;22.52;64.44;98973.93;238723;1191;139411;-57
2022/08/29 03:51:56;;;;;;;13.40;10.40;;;;;;;22.50;64.37;98983.58;238636;1191;139265;-58
2022/08/29 03:56:59;;;;;;;13.90;11.30;;;;;;;22.47;64.35;98988.08;239028;1192;140173;-57
2022/08/29 04:02:02;;;;;;;16.90;11.90;;;;;;;22.46;64.42;98993.44;238953;1190;139309;-57
2022/08/29 04:07:05;;;;;;;176.50;135.90;;;;;;;22.45;64.61;98998.70;238762;1191;141627;-57
2022/08/29 04:12:10;;;;;;;16.70;13.70;;;;;;;22.41;64.38;99005.81;238705;1192;140134;-56
2022/08/29 04:17:13;;;;;;;63.10;50.90;;;;;;;22.27;64.31;99002.55;238928;1190;140310;-55
2022/08/29 04:22:16;;;;;;;19.10;13.80;;;;;;;22.24;64.69;99016.62;238930;1192;139777;-57
2022/08/29 04:27:19;;;;;;;14.40;12.90;;;;;;;22.24;64.66;99023.36;238647;1190;140057;-58
2022/08/29 04:32:22;;;;;;;15.10;12.60;;;;;;;22.16;64.61;99028.34;238766;1190;139433;-57
2022/08/29 04:37:25;;;;;;;18.50;13.20;;;;;;;22.09;64.70;99040.85;237565;1190;140159;-56
2022/08/29 04:42:28;;;;;;;13.60;11.50;;;;;;;21.98;64.70;99043.34;238788;1192;139874;-55
2022/08/29 04:47:34;;;;;;;16.60;11.50;;;;;;;21.92;64.80;99046.97;238111;1190;140551;-55
2022/08/29 04:52:38;;;;;;;18.10;13.60;;;;;;;21.91;64.88;99044.42;238971;1192;139782;-57
2022/08/29 04:57:41;;;;;;;18.10;13.50;;;;;;;21.92;65.10;99047.04;239012;1191;139524;-58
2022/08/29 05:02:44;;;;;;;22.30;14.20;;;;;;;21.87;64.96;99052.83;238816;1191;139849;-57
2022/08/29 05:07:47;;;;;;;21.60;14.00;;;;;;;21.82;65.11;99065.52;238830;1192;139547;-58
2022/08/29 05:12:50;;;;;;;18.30;13.80;;;;;;;21.77;64.94;99072.50;238686;1192;140683;-57
2022/08/29 05:17:53;;;;;;;26.00;15.90;;;;;;;21.75;65.08;99073.13;238552;1192;140184;-57
2022/08/29 05:22:57;;;;;;;21.60;15.30;;;;;;;21.76;65.31;99081.17;238823;1190;139589;-58
2022/08/29 05:28:00;;;;;;;24.80;14.70;;;;;;;21.74;65.22;99081.75;237967;1190;139622;-57
2022/08/29 05:33:04;;;;;;;19.20;11.90;;;;;;;21.69;65.32;99084.89;238860;1190;141212;-58
2022/08/29 05:38:08;;;;;;;20.50;13.40;;;;;;;21.70;65.37;99092.73;238477;1192;140326;-58
2022/08/29 05:43:11;;;;;;;24.10;13.70;;;;;;;21.71;65.35;99099.66;238453;1190;139595;-58
2022/08/29 05:48:17;;;;;;;28.40;14.10;;;;;;;21.68;65.40;99098.73;238930;1192;139897;-57
2022/08/29 05:53:20;;;;;;;20.80;14.30;;;;;;;21.65;65.37;99100.73;239090;1191;139404;-57
2022/08/29 05:58:23;;;;;;;18.80;12.70;;;;;;;21.63;65.54;99100.06;238414;1192;139228;-54
2022/08/29 06:03:26;;;;;;;20.80;12.10;;;;;;;21.61;65.35;99106.73;237164;1191;141227;-56
2022/08/29 06:08:29;;;;;;;18.50;12.80;;;;;;;21.57;65.60;99108.69;238687;1192;140737;-57
2022/08/29 06:13:32;;;;;;;20.80;12.40;;;;;;;21.54;65.85;99114.74;238181;1192;141209;-57
2022/08/29 06:18:35;;;;;;;17.40;11.30;;;;;;;21.52;65.82;99118.75;238446;1190;139878;-57
2022/08/29 06:23:39;;;;;;;16.10;11.90;;;;;;;21.50;65.87;99123.27;238413;1190;140447;-58
2022/08/29 06:28:45;;;;;;;15.20;10.80;;;;;;;21.47;66.01;99130.81;238889;1190;139819;-58
2022/08/29 06:33:52;;;;;;;17.30;11.80;;;;;;;21.47;66.11;99135.88;238433;1192;139296;-58
2022/08/29 06:38:59;;;;;;;14.10;9.70;;;;;;;21.43;66.11;99140.78;237248;1190;139158;-60
2022/08/29 06:44:03;;;;;;;16.20;9.90;;;;;;;21.43;66.09;99145.09;239014;1190;141845;-59
2022/08/29 06:49:10;;;;;;;14.80;10.30;;;;;;;21.45;66.28;99149.55;238701;1191;139824;-55
2022/08/29 06:54:15;;;;;;;13.40;9.30;;;;;;;21.47;66.26;99155.20;238846;1191;139249;-55
2022/08/29 06:59:19;;;;;;;12.90;8.20;;;;;;;21.49;66.30;99162.23;239051;1190;138910;-55
2022/08/29 07:04:22;;;;;;;97.50;74.50;;;;;;;21.59;66.25;99166.75;237935;1190;139854;-55
2022/08/29 07:09:31;;;;;;;14.30;9.00;;;;;;;21.72;66.24;99170.09;238031;1192;140514;-55
2022/08/29 07:14:34;;;;;;;12.70;7.90;;;;;;;21.88;66.24;99172.15;238584;1192;139907;-54
2022/08/29 07:19:37;;;;;;;11.60;7.70;;;;;;;22.04;66.11;99174.98;238853;1190;140170;-55
2022/08/29 07:24:42;;;;;;;11.20;7.00;;;;;;;22.18;65.88;99175.04;238927;1190;139359;-55
2022/08/29 07:29:45;;;;;;;16.60;7.50;;;;;;;22.27;65.43;99179.67;238689;1192;139113;-56
2022/08/29 07:34:52;;;;;;;8.70;6.60;;;;;;;22.33;65.22;99180.36;238767;1192;139845;-55
2022/08/29 07:39:58;;;;;;;7.50;5.90;;;;;;;22.33;64.86;99186.05;238541;1192;139025;-56
2022/08/29 07:45:03;;;;;;;11.80;6.30;;;;;;;22.37;64.68;99189.77;237996;1192;139955;-55
2022/08/29 07:50:08;;;;;;;7.60;5.60;;;;;;;22.46;64.70;99190.52;238109;1192;139717;-56
2022/08/29 07:55:11;;;;;;;9.00;5.20;;;;;;;22.51;64.32;99189.02;238571;1192;140685;-56
2022/08/29 08:00:14;;;;;;;9.40;5.60;;;;;;;22.56;64.02;99189.75;238933;1190;141394;-55
2022/08/29 08:05:17;;;;;;;6.80;5.00;;;;;;;22.64;63.63;99194.83;238820;1190;138821;-56
2022/08/29 08:10:20;;;;;;;7.60;4.50;;;;;;;22.64;63.27;99210.02;238298;1191;139984;-55
2022/08/29 08:15:23;;;;;;;10.60;4.80;;;;;;;22.62;62.66;99214.34;238570;1192;139245;-56
2022/08/29 08:20:26;;;;;;;10.40;4.50;;;;;;;22.60;62.50;99214.95;238673;1191;139762;-56
2022/08/29 08:25:30;;;;;;;67.10;51.40;;;;;;;22.71;62.61;99217.73;237356;1190;140273;-57
2022/08/29 08:30:33;;;;;;;7.90;5.20;;;;;;;22.80;62.19;99220.55;238859;1190;139296;-57
2022/08/29 08:35:38;;;;;;;7.70;5.30;;;;;;;22.79;61.54;99225.34;239123;1190;139203;-57
2022/08/29 08:40:59;;;;;;;7.90;4.50;;;;;;;22.79;61.22;99224.70;238988;1190;138920;-56
2022/08/29 08:46:02;;;;;;;8.20;4.10;;;;;;;22.77;60.81;99222.39;238293;1192;138554;-57
2022/08/29 08:51:16;;;;;;;6.20;4.00;;;;;;;22.77;60.54;99231.06;238916;1190;140090;-56
2022/08/29 08:56:45;;;;;;;8.20;3.40;;;;;;;22.85;60.29;99230.46;238794;1191;139667;-57
2022/08/29 09:02:00;;;;;;;5.30;3.70;;;;;;;22.95;59.95;99229.78;238829;1191;139576;-57
2022/08/29 09:07:43;;;;;;;8.50;3.60;;;;;;;22.99;59.78;99229.59;238743;1190;139380;-57
2022/08/29 09:13:23;;;;;;;6.40;3.50;;;;;;;23.10;59.70;99227.88;238681;1191;140488;-57
2022/08/29 09:18:39;;;;;;;11.50;6.40;;;;;;;23.21;59.53;99230.32;238591;1192;139959;-57
2022/08/29 09:23:46;;;;;;;9.50;6.40;;;;;;;23.25;59.22;99228.52;238889;1192;139608;-57
2022/08/29 09:28:49;;;;;;;7.40;3.90;;;;;;;23.36;59.13;99232.27;238758;1191;139329;-57
2022/08/29 09:34:06;;;;;;;9.20;5.40;;;;;;;23.48;58.93;99232.04;238722;1192;139494;-56
2022/08/29 09:39:27;;;;;;;5.10;3.30;;;;;;;23.64;58.99;99229.96;238976;1190;141210;-55
2022/08/29 09:44:33;;;;;;;7.00;3.40;;;;;;;23.81;58.30;99229.77;237622;1190;139330;-56
2022/08/29 09:49:38;;;;;;;5.30;3.60;;;;;;;23.91;57.75;99228.23;238670;1190;139027;-57
2022/08/29 09:54:43;;;;;;;7.40;4.10;;;;;;;23.96;57.34;99221.73;238615;1192;139393;-57
2022/08/29 10:00:03;;;;;;;6.70;4.40;;;;;;;24.06;57.30;99220.48;238918;1190;140105;-55
2022/08/29 10:05:09;;;;;;;8.20;3.20;;;;;;;24.28;56.97;99219.29;239068;1190;139087;-57
2022/08/29 10:10:20;;;;;;;9.00;4.40;;;;;;;24.46;56.15;99222.77;238696;1192;139688;-56
2022/08/29 10:15:39;;;;;;;4.00;3.10;;;;;;;24.50;55.81;99216.02;238273;1190;139814;-56
2022/08/29 10:20:55;;;;;;;4.80;3.70;;;;;;;24.47;55.22;99215.39;238844;1191;139947;-57
2022/08/29 10:26:08;;;;;;;8.40;4.40;;;;;;;24.39;55.25;99219.44;238570;1192;139249;-57
2022/08/29 10:31:21;;;;;;;11.60;8.30;;;;;;;24.45;55.39;99216.17;238516;1191;139666;-57
2022/08/29 10:36:31;;;;;;;8.70;5.10;;;;;;;24.67;55.03;99211.23;238557;1192;139277;-58
2022/08/29 10:41:49;;;;;;;9.20;6.20;;;;;;;24.82;54.41;99216.34;238701;1192;138902;-59
2022/08/29 10:47:01;;;;;;;7.40;4.60;;;;;;;24.79;53.94;99217.20;238483;1192;138730;-58
2022/08/29 10:52:45;;;;;;;5.80;4.20;;;;;;;24.93;53.55;99213.02;238729;1192;139967;-58
2022/08/29 10:58:16;;;;;;;6.90;4.40;;;;;;;25.17;53.40;99206.71;237877;1192;139167;-58
2022/08/29 11:03:52;;;;;;;9.10;4.70;;;;;;;25.45;52.96;99206.86;238696;1190;143999;-59
2022/08/29 11:09:25;;;;;;;6.70;4.60;;;;;;;25.43;52.33;99209.94;238575;1191;139758;-59
2022/08/29 11:14:34;;;;;;;8.40;4.40;;;;;;;25.48;52.31;99216.46;238800;1191;139357;-57
2022/08/29 11:19:59;;;;;;;9.20;5.00;;;;;;;25.67;51.61;99212.22;238949;1192;139591;-57
2022/08/29 11:25:09;;;;;;;12.10;5.40;;;;;;;25.77;51.21;99207.60;238729;1191;139280;-58
2022/08/29 11:30:20;;;;;;;6.80;5.40;;;;;;;25.58;51.01;99205.55;238999;1190;141089;-58
2022/08/29 11:35:32;;;;;;;6.30;4.80;;;;;;;25.40;51.06;99203.64;238149;1190;139510;-58
2022/08/29 11:40:51;;;;;;;7.80;4.00;;;;;;;25.23;50.87;99205.77;238950;1190;139027;-58
2022/08/29 11:46:27;;;;;;;6.90;3.90;;;;;;;25.32;51.05;99201.88;238565;1192;139198;-58
2022/08/29 11:51:36;;;;;;;7.50;3.80;;;;;;;25.65;50.93;99192.05;238535;1192;139246;-58
2022/08/29 11:56:40;;;;;;;7.50;3.80;;;;;;;26.01;50.71;99185.95;238416;1192;138858;-58
2022/08/29 12:01:43;;;;;;;9.50;3.80;;;;;;;25.97;49.98;99191.14;238382;1192;138845;-58
2022/08/29 12:07:07;;;;;;;7.20;4.80;;;;;;;25.77;50.00;99193.83;238813;1192;139174;-58
2022/08/29 12:12:12;;;;;;;10.10;4.50;;;;;;;25.63;50.27;99196.98;238596;1192;140011;-58
2022/08/29 12:17:15;;;;;;;6.30;4.10;;;;;;;25.47;50.38;99199.45;238597;1192;139629;-58
2022/08/29 12:22:49;;;;;;;6.30;4.30;;;;;;;25.35;50.36;99203.89;237802;1192;139810;-59
2022/08/29 12:28:04;;;;;;;9.90;4.50;;;;;;;25.48;50.79;99200.59;238279;1191;139573;-58
2022/08/29 12:33:26;;;;;;;6.40;4.40;;;;;;;25.80;50.63;99203.35;238923;1191;141571;-58
2022/08/29 12:38:48;;;;;;;6.50;4.10;;;;;;;25.69;50.20;99205.36;238801;1192;139768;-58
2022/08/29 12:43:58;;;;;;;11.20;5.30;;;;;;;25.56;50.12;99202.58;238753;1191;140019;-57
2022/08/29 12:49:14;;;;;;;12.30;5.40;;;;;;;25.65;50.53;99204.52;238631;1191;141113;-58
2022/08/29 12:54:32;;;;;;;9.30;5.20;;;;;;;26.03;50.47;99196.23;238756;1191;139730;-58
2022/08/29 12:59:35;;;;;;;13.30;5.60;;;;;;;26.33;49.96;99194.13;238676;1191;138990;-58
2022/08/29 13:04:43;;;;;;;7.40;5.00;;;;;;;26.30;49.69;99184.43;238944;1190;139253;-57
2022/08/29 13:09:53;;;;;;;10.70;5.20;;;;;;;26.19;49.23;99189.31;238763;1191;138834;-58
2022/08/29 13:15:16;;;;;;;10.40;5.60;;;;;;;25.98;49.13;99194.09;238447;1192;139202;-58
2022/08/29 13:20:41;;;;;;;8.30;5.40;;;;;;;25.79;49.34;99191.19;238627;1191;139757;-58
2022/08/29 13:25:49;;;;;;;8.50;5.60;;;;;;;25.63;49.55;99190.19;237713;1192;139376;-57
2022/08/29 13:31:07;;;;;;;7.60;5.20;;;;;;;25.52;49.53;99191.11;238750;1192;139929;-58
2022/08/29 13:36:26;;;;;;;11.90;6.10;;;;;;;25.42;49.75;99183.77;238923;1192;139640;-59
2022/08/29 13:41:29;;;;;;;9.50;4.90;;;;;;;25.36;49.53;99180.90;239004;1191;139232;-58
2022/08/29 13:46:32;;;;;;;6.90;4.80;;;;;;;25.58;49.99;99177.44;237844;1191;140442;-57
2022/08/29 13:51:35;;;;;;;8.90;4.90;;;;;;;26.02;49.65;99173.86;238922;1191;139469;-58
2022/08/29 13:56:38;;;;;;;8.50;4.80;;;;;;;26.36;49.18;99170.51;238646;1192;140242;-58
2022/08/29 14:01:41;;;;;;;6.90;4.40;;;;;;;26.55;48.79;99165.58;238459;1191;139277;-59
2022/08/29 14:07:04;;;;;;;10.40;5.60;;;;;;;26.48;48.21;99170.23;236912;1192;140043;-57
2022/08/29 14:12:08;;;;;;;8.30;4.70;;;;;;;26.61;48.19;99171.55;238901;1191;139289;-58
2022/08/29 14:17:13;;;;;;;5.70;3.70;;;;;;;26.81;48.00;99164.57;238892;1191;138486;-58
2022/08/29 14:22:20;;;;;;;5.90;3.90;;;;;;;26.99;47.51;99168.29;238734;1192;139012;-57
2022/08/29 14:27:23;;;;;;;6.00;4.00;;;;;;;27.01;46.94;99169.81;238799;1190;138670;-58
2022/08/29 14:32:26;;;;;;;7.30;3.80;;;;;;;26.85;46.64;99169.17;238566;1192;139239;-58
2022/08/29 14:37:29;;;;;;;8.10;3.90;;;;;;;26.68;46.43;99179.85;238045;1191;138809;-57
2022/08/29 14:42:32;;;;;;;8.60;4.30;;;;;;;26.55;46.34;99177.80;238840;1192;139202;-57
2022/08/29 14:47:35;;;;;;;10.00;4.00;;;;;;;26.43;46.21;99177.62;238862;1190;139702;-57
2022/08/29 14:52:40;;;;;;;6.70;3.80;;;;;;;26.26;45.94;99173.25;238593;1190;139384;-58
2022/08/29 14:57:43;;;;;;;7.40;4.30;;;;;;;26.10;46.13;99167.92;238619;1192;139725;-56
2022/08/29 15:02:46;;;;;;;10.30;3.90;;;;;;;26.00;46.11;99168.05;238912;1190;139623;-58
2022/08/29 15:07:49;;;;;;;9.60;4.80;;;;;;;25.94;46.37;99166.63;238606;1192;139449;-57
2022/08/29 15:12:52;;;;;;;5.90;3.80;;;;;;;25.94;46.41;99164.66;238777;1190;138651;-58
2022/08/29 15:17:58;;;;;;;6.50;3.60;;;;;;;25.89;46.25;99163.42;238926;1192;139506;-58
2022/08/29 15:23:01;;;;;;;9.40;4.00;;;;;;;25.84;46.33;99160.38;238870;1192;142213;-58
2022/08/29 15:28:05;;;;;;;7.30;3.10;;;;;;;25.81;46.11;99157.73;238576;1192;138793;-58
2022/08/29 15:33:08;;;;;;;129.80;109.90;;;;;;;25.72;45.88;99155.84;238595;1190;139834;-58
2022/08/29 15:38:11;;;;;;;8.70;4.80;;;;;;;25.64;45.99;99155.56;238748;1192;139909;-59
2022/08/29 15:43:14;;;;;;;6.90;3.60;;;;;;;25.62;46.16;99153.92;238802;1192;139992;-58
2022/08/29 15:48:17;;;;;;;7.00;3.50;;;;;;;25.62;46.33;99150.80;238886;1190;139608;-58
2022/08/29 15:53:20;;;;;;;8.50;3.70;;;;;;;25.59;46.02;99150.09;238945;1192;139614;-58
2022/08/29 15:58:23;;;;;;;9.10;3.40;;;;;;;25.56;46.13;99151.14;238429;1191;140130;-59
2022/08/29 16:03:27;;;;;;;10.90;4.80;;;;;;;25.51;46.17;99153.34;238776;1190;139508;-59
2022/08/29 16:08:30;;;;;;;7.10;3.70;;;;;;;25.45;46.10;99154.29;238512;1190;139883;-59
2022/08/29 16:13:33;;;;;;;9.10;3.50;;;;;;;25.42;46.22;99153.74;238918;1191;139702;-59
2022/08/29 16:18:36;;;;;;;6.90;3.30;;;;;;;25.35;46.25;99151.25;238742;1190;140817;-59
2022/08/29 16:23:39;;;;;;;8.60;3.50;;;;;;;25.28;46.46;99147.49;237814;1192;139366;-57
2022/08/29 16:28:42;;;;;;;27.60;21.20;;;;;;;25.21;46.31;99147.45;238651;1192;139228;-58
2022/08/29 16:33:45;;;;;;;12.80;6.30;;;;;;;25.12;46.39;99149.19;238563;1192;139565;-57
2022/08/29 16:38:48;;;;;;;7.30;3.10;;;;;;;25.05;46.41;99144.58;238637;1191;139215;-59
2022/08/29 16:43:52;;;;;;;7.00;2.90;;;;;;;24.99;46.38;99138.96;237699;1190;139920;-58
2022/08/29 16:48:55;;;;;;;13.60;4.70;;;;;;;24.94;46.55;99143.40;238614;1192;138524;-59
2022/08/29 16:53:58;;;;;;;7.80;3.00;;;;;;;24.88;46.45;99144.70;238847;1190;139366;-58
2022/08/29 16:59:03;;;;;;;7.80;3.20;;;;;;;24.83;46.38;99149.11;238741;1190;139040;-59
2022/08/29 17:04:11;;;;;;;8.00;3.00;;;;;;;24.76;46.40;99152.06;238500;1192;138851;-59
2022/08/29 17:19:25;;;;;;;8.10;3.00;;;;;;;24.61;46.63;99168.55;238900;1190;139691;-58
2022/08/29 17:24:28;;;;;;;9.70;3.30;;;;;;;24.58;46.54;99171.34;238827;1192;140385;-58
2022/08/29 17:29:31;;;;;;;9.40;3.40;;;;;;;24.53;46.65;99172.80;238791;1192;139030;-59
2022/08/29 17:34:36;;;;;;;14.50;5.10;;;;;;;24.44;46.66;99176.54;238826;1190;138653;-57
2022/08/29 17:39:39;;;;;;;12.50;3.70;;;;;;;24.37;47.04;99181.05;238918;1191;140151;-57
2022/08/29 17:44:42;;;;;;;218.10;144.10;;;;;;;24.30;47.03;99189.03;238819;1191;139384;-58
2022/08/29 17:49:47;;;;;;;23.30;13.20;;;;;;;24.25;47.12;99194.89;238825;1190;140732;-55
2022/08/29 17:54:50;;;;;;;14.20;7.00;;;;;;;24.21;47.21;99199.27;238793;1192;140021;-58
2022/08/29 17:59:53;;;;;;;7.80;3.90;;;;;;;24.17;47.47;99202.55;238904;1190;139099;-58
2022/08/29 18:04:57;;;;;;;11.90;4.90;;;;;;;24.14;47.43;99206.58;238755;1190;139411;-58
2022/08/29 18:10:02;;;;;;;9.30;3.70;;;;;;;24.07;47.58;99213.85;238728;1192;140111;-57
2022/08/29 18:15:08;;;;;;;12.30;4.20;;;;;;;24.04;47.98;99221.58;238636;1191;138985;-56
2022/08/29 18:20:14;;;;;;;7.10;3.50;;;;;;;23.99;47.83;99230.21;238628;1192;139850;-56
2022/08/29 18:25:18;;;;;;;9.00;3.10;;;;;;;23.84;47.76;99234.95;238846;1191;139255;-57
2022/08/29 18:30:24;;;;;;;84.30;63.60;;;;;;;23.72;48.14;99240.70;238523;1190;139940;-56
2022/08/29 18:35:28;;;;;;;13.80;8.10;;;;;;;23.60;47.94;99247.13;238992;1192;140568;-57
2022/08/29 18:40:31;;;;;;;12.60;5.40;;;;;;;23.54;48.18;99248.79;238671;1192;139675;-58
2022/08/29 18:45:41;;;;;;;9.60;3.50;;;;;;;23.47;48.36;99256.36;238506;1192;139268;-57
2022/08/29 18:50:45;;;;;;;28.50;21.00;;;;;;;23.26;48.18;99258.23;238715;1191;139427;-60
2022/08/29 18:55:51;;;;;;;261.10;226.30;;;;;;;23.09;48.45;99261.58;238394;1190;139314;-57
2022/08/29 19:00:55;;;;;;;22.10;11.40;;;;;;;22.96;48.71;99268.19;238357;1190;142864;-61
2022/08/29 19:05:58;;;;;;;10.70;4.70;;;;;;;22.87;49.00;99276.27;238571;1191;139832;-59
2022/08/29 19:11:05;;;;;;;12.50;4.10;;;;;;;22.78;49.13;99286.56;238659;1192;139220;-57
2022/08/29 19:16:08;;;;;;;11.70;4.00;;;;;;;22.67;49.11;99286.95;238183;1190;140151;-58
2022/08/29 19:21:11;;;;;;;9.50;4.20;;;;;;;22.54;49.33;99295.20;238761;1192;139119;-56
2022/08/29 19:26:21;;;;;;;213.90;183.60;;;;;;;22.45;49.63;99303.45;238566;1192;140426;-56
2022/08/29 19:31:26;;;;;;;20.80;13.60;;;;;;;22.42;50.04;99307.67;238590;1190;142418;-58
2022/08/29 19:36:29;;;;;;;10.40;5.20;;;;;;;22.38;50.13;99322.58;238628;1192;140274;-57
2022/08/29 19:41:33;;;;;;;11.00;4.80;;;;;;;22.29;49.98;99326.07;238926;1190;139660;-57
2022/08/29 19:46:37;;;;;;;14.60;8.90;;;;;;;22.20;50.30;99325.21;238478;1192;139396;-56
2022/08/29 19:51:41;;;;;;;64.30;51.00;;;;;;;22.16;50.48;99321.34;238556;1191;140310;-57
2022/08/29 19:56:44;;;;;;;14.00;6.50;;;;;;;22.08;50.51;99325.73;238619;1192;139765;-57
2022/08/29 20:01:48;;;;;;;9.60;5.10;;;;;;;21.88;50.43;99329.35;238678;1191;140436;-56
2022/08/29 20:06:52;;;;;;;8.90;4.40;;;;;;;21.68;50.68;99333.36;238522;1192;139197;-57
2022/08/29 20:12:03;;;;;;;11.00;4.90;;;;;;;21.51;50.87;99336.79;238181;1192;139355;-59
2022/08/29 20:17:07;;;;;;;13.20;4.70;;;;;;;21.35;51.08;99342.20;239096;1190;139557;-57
2022/08/29 20:22:11;;;;;;;48.20;40.60;;;;;;;21.24;51.86;99339.48;238915;1190;139058;-59
2022/08/29 20:27:14;;;;;;;13.70;7.50;;;;;;;21.38;52.60;99342.23;238644;1191;140003;-57
2022/08/29 20:32:17;;;;;;;6.90;4.50;;;;;;;21.31;52.01;99348.73;238745;1191;142683;-58
2022/08/29 20:37:22;;;;;;;15.10;5.20;;;;;;;21.16;51.95;99352.43;238794;1191;140055;-57
2022/08/29 20:42:25;;;;;;;12.60;5.10;;;;;;;21.07;52.26;99351.20;238887;1191;138989;-58
2022/08/29 20:47:28;;;;;;;12.30;4.70;;;;;;;21.03;52.37;99350.80;238637;1192;139236;-58
2022/08/29 20:52:31;;;;;;;9.30;4.80;;;;;;;21.01;52.44;99345.20;238696;1191;139596;-57
2022/08/29 20:57:37;;;;;;;12.50;4.70;;;;;;;20.99;52.51;99347.61;238717;1192;139125;-56
2022/08/29 21:08:04;;;;;;;9.50;4.10;;;;;;;20.78;52.73;99346.24;238969;1190;139405;-58
2022/08/29 21:13:10;;;;;;;9.50;4.60;;;;;;;20.71;52.85;99341.56;238775;1192;139621;-59
2022/08/29 21:18:14;;;;;;;10.50;4.20;;;;;;;20.68;52.89;99343.73;238330;1192;139503;-56
2022/08/29 21:23:23;;;;;;;11.00;4.10;;;;;;;20.64;53.01;99341.05;238364;1192;139318;-59
2022/08/29 21:28:30;;;;;;;11.00;4.50;;;;;;;20.59;53.07;99342.24;238935;1191;139794;-59
2022/08/29 21:33:43;;;;;;;12.00;4.40;;;;;;;20.56;53.32;99342.36;238676;1191;139212;-60
2022/08/29 21:38:50;;;;;;;12.10;4.90;;;;;;;20.53;53.47;99343.17;238795;1192;139705;-59
2022/08/29 21:43:53;;;;;;;14.20;5.10;;;;;;;20.48;53.61;99350.33;238813;1190;139293;-57
2022/08/29 21:48:59;;;;;;;10.80;5.40;;;;;;;20.47;53.78;99359.20;238647;1191;139070;-59
2022/08/29 21:54:03;;;;;;;13.40;5.20;;;;;;;20.47;53.91;99363.20;238578;1192;139490;-59
2022/08/29 21:59:06;;;;;;;9.20;5.20;;;;;;;20.39;54.13;99363.41;238619;1192;139796;-56
2022/08/29 22:04:13;;;;;;;11.70;5.80;;;;;;;20.27;54.27;99362.79;238568;1192;139763;-57
2022/08/29 22:09:31;;;;;;;12.80;5.10;;;;;;;20.17;54.44;99355.84;238847;1190;140818;-56
2022/08/29 22:19:56;;;;;;;10.70;4.60;;;;;;;20.09;54.69;99360.73;239095;1190;139180;-59
2022/08/29 22:24:58;;;;;;;8.90;4.30;;;;;;;20.08;54.87;99365.52;238892;1190;139155;-59
2022/08/29 22:30:03;;;;;;;7.50;3.90;;;;;;;20.08;54.69;99360.88;239087;1190;138917;-57
2022/08/29 22:35:08;;;;;;;14.10;4.30;;;;;;;20.06;54.74;99362.08;238763;1190;138933;-60
2022/08/29 22:40:15;;;;;;;11.80;4.10;;;;;;;20.03;54.77;99365.83;238930;1190;139837;-59
2022/08/29 22:45:18;;;;;;;11.80;4.20;;;;;;;19.97;54.61;99361.55;238949;1190;138990;-59
2022/08/29 22:50:23;;;;;;;9.20;3.90;;;;;;;19.92;54.70;99359.73;238765;1190;139467;-60
2022/08/29 22:55:27;;;;;;;11.10;5.00;;;;;;;19.86;54.75;99362.95;238730;1191;139402;-57
2022/08/29 23:00:29;;;;;;;9.30;4.40;;;;;;;19.82;54.71;99362.48;238843;1191;139597;-57
2022/08/29 23:05:32;;;;;;;15.40;4.50;;;;;;;19.77;54.74;99360.27;238962;1190;140167;-56
2022/08/29 23:10:35;;;;;;;8.90;4.20;;;;;;;19.71;54.82;99361.38;238820;1190;139496;-57
2022/08/29 23:15:38;;;;;;;12.70;4.50;;;;;;;19.63;54.87;99361.71;238646;1192;139765;-55
2022/08/29 23:20:41;;;;;;;11.20;5.10;;;;;;;19.57;55.01;99366.94;238860;1191;139749;-57
2022/08/29 23:25:48;;;;;;;10.30;5.20;;;;;;;19.53;55.08;99360.84;238755;1192;139978;-57
2022/08/29 23:30:51;;;;;;;10.50;5.70;;;;;;;19.51;55.12;99361.40;238932;1192;139566;-58
2022/08/29 23:35:54;;;;;;;9.60;5.20;;;;;;;19.49;55.17;99364.31;239073;1191;139054;-58
2022/08/29 23:40:58;;;;;;;14.80;5.70;;;;;;;19.48;55.30;99363.11;238946;1192;140367;-58